Time;durP1;ratioP1;P1;durP2;ratioP2;P2;SDS_P1;SDS_P2;PMS_P1;PMS_P2;Temp;Humidity;BMP_temperature;BMP_pressure;BME280_temperature;BME280_humidity;BME280_pressure;Samples;Min_cycle;Max_cycle;Signal;HPM_P1;HPM_P2
2022/08/23 00:01:34;;;;;;;2.53;1.77;;;;;;;26.58;49.03;100433.06;5074206;28;20491;-79
2022/08/23 00:04:10;;;;;;;3.40;2.00;;;;;;;26.57;49.14;100425.94;5072924;28;20060;-78
2022/08/23 00:06:39;;;;;;;2.70;1.98;;;;;;;26.56;48.97;100418.81;5073060;28;20049;-79
2022/08/23 00:09:07;;;;;;;2.58;1.80;;;;;;;26.56;48.91;100421.53;5073201;28;20048;-79
2022/08/23 00:11:36;;;;;;;3.28;1.67;;;;;;;26.57;48.93;100416.94;5073370;28;20093;-79
2022/08/23 00:14:08;;;;;;;2.80;2.20;;;;;;;26.57;48.92;100420.50;5072589;28;20051;-79
2022/08/23 00:16:36;;;;;;;3.63;2.05;;;;;;;26.57;48.96;100414.25;5073387;28;20381;-80
2022/08/23 00:19:06;;;;;;;3.42;2.17;;;;;;;26.57;48.91;100415.06;5072800;28;20495;-79
2022/08/23 00:21:35;;;;;;;2.85;1.92;;;;;;;26.56;48.86;100413.41;5072979;28;20048;-79
2022/08/23 00:24:05;;;;;;;3.83;1.85;;;;;;;26.57;49.00;100428.66;5073185;28;20412;-78
2022/08/23 00:26:51;;;;;;;3.20;1.90;;;;;;;26.57;48.89;100423.22;5072709;28;20445;-78
2022/08/23 00:29:20;;;;;;;2.95;2.15;;;;;;;26.57;48.99;100420.50;5072653;28;20036;-79
2022/08/23 00:31:50;;;;;;;3.63;2.53;;;;;;;26.58;48.65;100414.06;5076237;28;20037;-79
2022/08/23 00:34:19;;;;;;;3.25;1.65;;;;;;;26.58;49.02;100416.78;5075763;28;20040;-79
2022/08/23 00:36:49;;;;;;;3.33;2.03;;;;;;;26.59;48.78;100414.91;5074866;28;20404;-79
2022/08/23 00:39:17;;;;;;;4.05;2.10;;;;;;;26.58;48.82;100416.78;5076837;28;20040;-79
2022/08/23 00:41:47;;;;;;;3.13;2.10;;;;;;;26.57;48.89;100428.66;5074819;28;20526;-79
2022/08/23 00:50:05;;;;;;;3.42;1.90;;;;;;;26.58;49.09;100424.94;5075655;28;20060;-80
2022/08/23 00:52:56;;;;;;;3.55;1.95;;;;;;;26.58;49.14;100416.78;5076520;28;20365;-80
2022/08/23 00:55:25;;;;;;;3.13;1.95;;;;;;;26.59;49.30;100410.31;5074706;28;20052;-79
2022/08/23 00:57:53;;;;;;;2.50;1.90;;;;;;;26.59;49.29;100410.31;5076458;28;20059;-80
2022/08/23 01:00:21;;;;;;;3.38;1.80;;;;;;;26.57;49.19;100415.06;5076114;28;20049;-79
2022/08/23 01:02:53;;;;;;;3.17;2.10;;;;;;;26.59;48.98;100414.91;5074679;28;20072;-80
2022/08/23 01:05:27;;;;;;;2.47;1.83;;;;;;;26.58;49.26;100411.34;5076498;28;20390;-78
2022/08/23 01:07:58;;;;;;;3.00;2.15;;;;;;;26.59;48.93;100412.19;5058592;28;20059;-78
2022/08/23 01:10:36;;;;;;;2.47;1.75;;;;;;;26.59;48.94;100417.63;5074715;28;20049;-78
2022/08/23 01:13:16;;;;;;;2.83;1.80;;;;;;;26.57;48.86;100422.38;5074608;28;20041;-78
2022/08/23 01:15:57;;;;;;;3.50;1.80;;;;;;;26.57;48.85;100423.22;5074385;28;20055;-78
2022/08/23 01:18:29;;;;;;;3.00;2.00;;;;;;;26.58;48.96;100416.78;5074286;28;20053;-78
2022/08/23 01:21:02;;;;;;;2.83;2.20;;;;;;;26.57;48.83;100423.22;5075794;28;20044;-77
2022/08/23 01:23:52;;;;;;;3.00;1.80;;;;;;;26.56;48.74;100428.84;5074477;28;20055;-78
2022/08/23 01:26:21;;;;;;;3.05;1.98;;;;;;;26.55;48.87;100438.88;5076287;28;20041;-77
2022/08/23 01:28:51;;;;;;;3.92;1.95;;;;;;;26.57;48.90;100427.81;5076142;28;20045;-79
2022/08/23 01:31:21;;;;;;;2.75;1.83;;;;;;;26.56;48.96;100426.97;5057843;28;20127;-78
2022/08/23 01:34:01;;;;;;;5.45;2.47;;;;;;;26.56;49.07;100432.41;5074365;28;20049;-78
2022/08/23 01:36:29;;;;;;;2.95;2.03;;;;;;;26.57;49.08;100427.81;5057461;28;20055;-79
2022/08/23 01:38:57;;;;;;;3.50;2.03;;;;;;;26.57;49.06;100425.09;5074252;28;20048;-79
2022/08/23 01:41:25;;;;;;;2.92;1.88;;;;;;;26.57;49.11;100425.09;5075464;28;20044;-79
2022/08/23 01:43:52;;;;;;;2.92;2.00;;;;;;;26.57;49.00;100422.38;5074377;28;20686;-79
2022/08/23 01:46:24;;;;;;;2.63;2.13;;;;;;;26.57;49.08;100422.38;5073759;28;20403;-79
2022/08/23 01:48:54;;;;;;;2.38;2.00;;;;;;;26.57;48.92;100422.38;5073786;28;20048;-79
2022/08/23 01:51:22;;;;;;;2.97;1.83;;;;;;;26.57;49.07;100423.22;5074358;28;20052;-78
2022/08/23 01:53:50;;;;;;;5.30;2.33;;;;;;;26.57;49.06;100430.53;5073937;28;20049;-78
2022/08/23 01:56:18;;;;;;;3.08;2.42;;;;;;;26.57;49.08;100434.06;5074174;28;20067;-79
2022/08/23 01:58:55;;;;;;;4.10;1.70;;;;;;;26.59;49.22;100440.19;5073425;28;20055;-79
2022/08/23 02:01:29;;;;;;;2.90;1.77;;;;;;;26.58;49.17;100434.94;5073813;28;20055;-78
2022/08/23 02:03:56;;;;;;;2.58;1.80;;;;;;;26.57;49.17;100434.06;5073152;28;20052;-78
2022/08/23 02:06:31;;;;;;;3.85;1.90;;;;;;;26.58;49.12;100441.22;5073675;28;20408;-78
2022/08/23 02:09:00;;;;;;;3.03;1.85;;;;;;;26.57;49.10;100433.25;5073477;28;20040;-79
2022/08/23 02:11:40;;;;;;;2.63;1.90;;;;;;;26.58;48.85;100443.09;5074033;28;20408;-79
2022/08/23 02:14:13;;;;;;;2.65;1.70;;;;;;;26.57;49.05;100444.09;5073416;28;20503;-79
2022/08/23 02:16:51;;;;;;;2.78;1.95;;;;;;;26.59;49.15;100452.91;5073825;28;20060;-79
2022/08/23 02:19:35;;;;;;;2.80;1.95;;;;;;;26.57;49.06;100446.81;5074668;28;20044;-79
2022/08/23 02:22:04;;;;;;;2.72;2.05;;;;;;;26.59;49.16;100447.47;5073212;28;20465;-79
2022/08/23 02:24:33;;;;;;;4.07;1.88;;;;;;;26.58;49.06;100449.34;5075279;28;20048;-80
2022/08/23 02:27:04;;;;;;;2.42;1.98;;;;;;;26.59;49.08;100450.19;5073264;28;20048;-80
2022/08/23 02:29:37;;;;;;;2.30;1.70;;;;;;;26.56;49.29;100445.13;5073600;28;20424;-80
2022/08/23 02:32:08;;;;;;;2.70;1.75;;;;;;;26.57;49.47;100453.09;5072978;28;20059;-80
2022/08/23 02:34:36;;;;;;;3.53;1.90;;;;;;;26.59;49.22;100458.34;5073069;28;20052;-80
2022/08/23 02:37:06;;;;;;;2.47;1.67;;;;;;;26.57;49.23;100461.22;5056591;28;20081;-80
2022/08/23 02:39:34;;;;;;;2.80;1.70;;;;;;;26.57;49.35;100466.66;5074450;28;20041;-80
2022/08/23 02:42:06;;;;;;;2.78;1.98;;;;;;;26.58;49.29;100471.09;5072992;28;20071;-79
2022/08/23 02:44:39;;;;;;;2.40;1.60;;;;;;;26.58;49.34;100473.78;5073184;28;20048;-79
2022/08/23 02:47:07;;;;;;;2.45;2.15;;;;;;;26.58;49.54;100473.78;5072622;28;20096;-79
2022/08/23 02:49:37;;;;;;;2.78;1.83;;;;;;;26.57;49.44;100472.09;5072391;28;20048;-80
2022/08/23 02:52:06;;;;;;;2.80;1.92;;;;;;;26.59;49.23;100470.03;5074333;28;20401;-79
2022/08/23 02:54:34;;;;;;;2.38;1.75;;;;;;;26.57;49.49;100469.38;5073140;28;20041;-80
2022/08/23 02:57:02;;;;;;;3.03;1.92;;;;;;;26.56;49.39;100470.41;5072499;28;20051;-80
2022/08/23 02:59:30;;;;;;;2.67;2.13;;;;;;;26.57;49.32;100472.09;5072936;28;20411;-80
2022/08/23 03:01:58;;;;;;;4.28;1.95;;;;;;;26.56;49.48;100473.13;5072372;28;20419;-79
2022/08/23 03:04:33;;;;;;;2.78;1.88;;;;;;;26.57;49.46;100479.41;5072470;28;20118;-79
2022/08/23 03:07:01;;;;;;;4.68;2.00;;;;;;;26.57;49.42;100482.09;5072524;28;20419;-79
2022/08/23 03:09:29;;;;;;;2.05;1.40;;;;;;;26.57;49.45;100491.09;5072093;28;20055;-79
2022/08/23 03:11:56;;;;;;;2.38;2.03;;;;;;;26.57;49.50;100487.53;5072041;28;20060;-80
2022/08/23 03:14:24;;;;;;;3.20;1.90;;;;;;;26.57;49.56;100490.25;5055711;28;20045;-79
2022/08/23 03:16:51;;;;;;;3.30;1.83;;;;;;;26.57;49.34;100495.69;5072840;28;20078;-79
2022/08/23 03:19:18;;;;;;;4.72;2.50;;;;;;;26.57;49.25;100490.25;5072574;28;20075;-79
2022/08/23 03:21:46;;;;;;;3.90;1.80;;;;;;;26.57;49.37;100492.97;5074055;28;20048;-79
2022/08/23 03:24:16;;;;;;;2.42;1.70;;;;;;;26.56;49.30;100494.00;5072354;28;20499;-80
2022/08/23 03:26:44;;;;;;;3.35;2.17;;;;;;;26.56;49.16;100496.72;5072028;28;20531;-80
2022/08/23 03:29:14;;;;;;;2.92;2.05;;;;;;;26.55;49.27;100495.88;5071985;28;20059;-80
2022/08/23 03:32:03;;;;;;;3.10;2.00;;;;;;;26.56;49.26;100489.41;5073971;28;20376;-80
2022/08/23 03:34:34;;;;;;;3.05;2.13;;;;;;;26.56;49.23;100492.13;5071723;28;20044;-80
2022/08/23 03:37:02;;;;;;;3.95;2.20;;;;;;;26.56;49.20;100496.72;5073334;28;20048;-80
2022/08/23 03:39:30;;;;;;;2.55;1.95;;;;;;;26.55;49.27;100501.31;5055618;28;20056;-80
2022/08/23 03:41:59;;;;;;;2.67;2.10;;;;;;;26.55;49.00;100492.34;5072064;28;20097;-80
2022/08/23 03:44:30;;;;;;;3.13;2.10;;;;;;;26.55;48.88;100500.47;5072163;28;20052;-80
2022/08/23 03:46:58;;;;;;;2.30;1.80;;;;;;;26.54;48.96;100488.78;5071857;28;20051;-79
2022/08/23 03:49:26;;;;;;;2.50;1.95;;;;;;;26.55;48.81;100493.16;5071617;28;20059;-80
2022/08/23 03:51:57;;;;;;;5.10;2.05;;;;;;;26.54;48.86;100486.06;5071837;28;20064;-80
2022/08/23 03:54:24;;;;;;;2.72;1.92;;;;;;;26.54;48.68;100491.50;5071505;28;20515;-79
2022/08/23 03:57:08;;;;;;;3.55;1.95;;;;;;;26.54;48.77;100493.38;5072028;28;20499;-80
2022/08/23 03:59:38;;;;;;;3.65;2.33;;;;;;;26.54;48.72;100502.34;5055689;28;20052;-79
2022/08/23 04:02:09;;;;;;;2.50;2.03;;;;;;;26.54;48.61;100502.34;5071722;28;20109;-80
2022/08/23 04:04:38;;;;;;;3.00;1.90;;;;;;;26.54;48.51;100507.78;5072061;28;20064;-80
2022/08/23 04:07:34;;;;;;;3.75;1.90;;;;;;;26.54;48.51;100501.50;5076348;28;20045;-79
2022/08/23 04:10:03;;;;;;;3.25;1.77;;;;;;;26.54;48.42;100507.78;5076307;28;20056;-79
2022/08/23 04:12:35;;;;;;;4.20;1.80;;;;;;;26.54;48.33;100506.94;5075916;28;20507;-79
2022/08/23 04:15:12;;;;;;;3.70;2.05;;;;;;;26.54;48.30;100510.50;5075577;28;20044;-80
2022/08/23 04:17:41;;;;;;;3.65;1.88;;;;;;;26.55;48.44;100514.06;5076697;28;20051;-80
2022/08/23 04:20:09;;;;;;;2.58;1.67;;;;;;;26.54;48.27;100517.81;5075905;28;20044;-79
2022/08/23 04:22:51;;;;;;;3.38;2.08;;;;;;;26.53;48.39;100516.94;5075296;28;20108;-79
2022/08/23 04:25:20;;;;;;;2.15;1.70;;;;;;;26.54;48.27;100518.63;5076188;28;20049;-80
2022/08/23 04:28:00;;;;;;;2.60;1.90;;;;;;;26.54;48.32;100521.34;5078189;28;20049;-78
2022/08/23 04:30:30;;;;;;;2.65;1.75;;;;;;;26.53;48.31;100516.94;5075691;28;20412;-78
2022/08/23 04:32:57;;;;;;;2.67;1.98;;;;;;;26.54;48.11;100520.50;5077389;28;20053;-78
2022/08/23 04:35:25;;;;;;;3.10;1.60;;;;;;;26.53;48.15;100521.53;5076795;28;20044;-79
2022/08/23 04:37:53;;;;;;;4.50;1.80;;;;;;;26.54;48.12;100529.50;5078866;28;20044;-79
2022/08/23 04:43:08;;;;;;;2.63;1.75;;;;;;;26.53;48.25;100525.06;5075766;28;20057;-79
2022/08/23 04:45:38;;;;;;;3.40;1.77;;;;;;;26.53;48.08;100530.50;5074932;28;20048;-78
2022/08/23 04:48:09;;;;;;;2.75;1.70;;;;;;;26.52;48.02;100526.13;5075113;28;20067;-79
2022/08/23 04:50:41;;;;;;;2.47;1.80;;;;;;;26.52;47.93;100534.25;5059608;28;20055;-79
2022/08/23 04:53:18;;;;;;;2.80;1.95;;;;;;;26.53;47.92;100530.50;5075439;28;20052;-79
2022/08/23 04:56:08;;;;;;;2.40;1.80;;;;;;;26.53;47.89;100530.50;5075713;28;20067;-79
2022/08/23 04:58:40;;;;;;;2.03;1.58;;;;;;;26.52;48.07;100528.00;5075333;28;20435;-80
2022/08/23 05:01:09;;;;;;;1.98;1.67;;;;;;;26.53;47.93;100525.06;5075190;28;20056;-79
2022/08/23 05:03:38;;;;;;;2.80;1.80;;;;;;;26.51;47.89;100532.56;5074516;28;20519;-80
2022/08/23 05:06:06;;;;;;;4.03;1.77;;;;;;;26.52;47.95;100536.13;5074647;28;20048;-79
2022/08/23 05:08:38;;;;;;;2.40;1.85;;;;;;;26.52;47.95;100544.28;5058985;28;20419;-79
2022/08/23 05:11:10;;;;;;;2.42;2.03;;;;;;;26.53;47.83;100537.81;5074103;28;20060;-79
2022/08/23 05:13:40;;;;;;;2.88;1.65;;;;;;;26.52;47.83;100541.56;5075686;28;20052;-78
2022/08/23 05:16:10;;;;;;;3.78;1.95;;;;;;;26.52;47.93;100539.69;5073971;28;20045;-79
2022/08/23 05:18:43;;;;;;;2.30;1.58;;;;;;;26.51;47.61;100538.00;5075005;28;20059;-80
2022/08/23 05:21:17;;;;;;;3.88;2.55;;;;;;;26.53;47.75;100548.66;5074648;28;20055;-79
2022/08/23 05:23:46;;;;;;;3.22;1.80;;;;;;;26.52;47.92;100555.13;5058401;28;20052;-82
2022/08/23 05:26:22;;;;;;;2.50;1.65;;;;;;;26.52;47.91;100560.56;5074144;28;20048;-80
2022/08/23 05:28:50;;;;;;;3.83;1.60;;;;;;;26.52;47.85;100558.69;5074066;28;20048;-80
2022/08/23 05:31:26;;;;;;;3.42;2.13;;;;;;;26.53;48.10;100563.09;5058705;28;20056;-80
2022/08/23 05:33:58;;;;;;;3.72;1.85;;;;;;;26.52;48.09;100571.44;5074644;28;20063;-80
2022/08/23 05:36:42;;;;;;;1.88;1.30;;;;;;;26.52;48.11;100574.97;5073806;28;20051;-80
2022/08/23 05:39:24;;;;;;;2.47;1.67;;;;;;;26.52;48.04;100577.69;5075785;28;20044;-80
2022/08/23 05:42:10;;;;;;;2.47;1.65;;;;;;;26.52;48.33;100577.69;5073830;28;20053;-80
2022/08/23 05:44:37;;;;;;;2.50;1.70;;;;;;;26.52;48.08;100577.69;5074188;28;20055;-79
2022/08/23 05:47:09;;;;;;;2.67;1.98;;;;;;;26.53;48.17;100587.50;5075206;28;20051;-79
2022/08/23 05:50:13;;;;;;;2.45;1.70;;;;;;;26.49;46.95;100594.34;5053456;28;20567;-78
2022/08/23 05:52:40;;;;;;;3.58;2.03;;;;;;;26.45;46.44;100593.03;5052653;28;20052;-79
2022/08/23 05:55:09;;;;;;;3.47;2.17;;;;;;;26.38;46.09;100597.50;5036164;28;20049;-79
2022/08/23 05:57:40;;;;;;;3.70;2.05;;;;;;;26.33;46.28;100589.91;5037625;28;20049;-79
2022/08/23 06:00:14;;;;;;;3.17;1.90;;;;;;;26.29;46.47;100590.44;5036219;28;20611;-80
2022/08/23 06:02:56;;;;;;;2.40;1.83;;;;;;;26.22;46.01;100592.22;5035772;28;20534;-80
2022/08/23 06:05:24;;;;;;;4.85;2.40;;;;;;;26.15;45.36;100597.53;5035840;28;20044;-78
2022/08/23 06:07:52;;;;;;;4.95;2.20;;;;;;;26.08;45.36;100591.97;5053700;28;20048;-83
2022/08/23 06:10:22;;;;;;;4.13;2.10;;;;;;;26.00;45.46;100599.34;5020750;28;20475;-79
2022/08/23 06:12:56;;;;;;;3.78;2.10;;;;;;;25.92;45.81;100607.53;5035936;28;20049;-76
2022/08/23 06:15:24;;;;;;;7.20;2.30;;;;;;;25.83;45.92;100596.75;5053635;28;20064;-78
2022/08/23 06:17:51;;;;;;;2.92;1.60;;;;;;;25.80;46.24;100607.09;5035925;28;20061;-78
2022/08/23 06:20:19;;;;;;;7.55;2.15;;;;;;;25.73;46.27;100604.25;5051945;28;20049;-77
2022/08/23 06:23:13;;;;;;;4.10;2.47;;;;;;;25.68;46.11;100605.81;5052016;28;20603;-78
2022/08/23 06:25:41;;;;;;;3.53;2.20;;;;;;;25.61;46.18;100611.13;5072733;28;20048;-77
2022/08/23 06:28:16;;;;;;;4.10;2.55;;;;;;;25.53;46.51;100614.72;5072216;28;20056;-77
2022/08/23 06:30:45;;;;;;;5.28;1.95;;;;;;;25.52;46.96;100607.59;5073227;28;20044;-77
2022/08/23 06:33:21;;;;;;;4.93;2.25;;;;;;;25.51;47.20;100616.75;5073592;28;20044;-79
2022/08/23 06:36:12;;;;;;;4.47;2.20;;;;;;;25.53;47.41;100622.00;5069950;28;20376;-78
2022/08/23 06:39:06;;;;;;;3.13;2.28;;;;;;;25.57;47.36;100623.34;5073194;28;20060;-78
2022/08/23 06:42:02;;;;;;;4.13;2.05;;;;;;;25.63;47.13;100623.44;5072145;28;20060;-81
2022/08/23 06:44:44;;;;;;;3.95;2.25;;;;;;;25.64;46.88;100627.00;5073336;28;20412;-77
2022/08/23 06:47:18;;;;;;;3.08;2.40;;;;;;;25.62;46.46;100616.34;5072946;28;20052;-77
2022/08/23 06:49:49;;;;;;;3.20;1.70;;;;;;;25.55;46.32;100623.50;5056165;28;20049;-77
2022/08/23 06:52:46;;;;;;;12.15;2.30;;;;;;;25.54;46.61;100621.81;5076472;28;20063;-78
2022/08/23 06:55:38;;;;;;;4.80;2.10;;;;;;;25.53;47.05;100616.56;5062765;28;20408;-77
2022/08/23 06:58:21;;;;;;;4.15;2.42;;;;;;;25.47;47.51;100623.53;5072640;28;20048;-78
2022/08/23 07:01:27;;;;;;;3.88;2.22;;;;;;;25.40;47.85;100619.84;5080910;28;20495;-77
2022/08/23 07:04:44;;;;;;;5.03;2.47;;;;;;;25.35;48.67;100627.66;5032432;28;20405;-78
2022/08/23 07:07:28;;;;;;;6.70;2.60;;;;;;;25.30;48.99;100630.91;5016028;28;20068;-78
2022/08/23 07:10:09;;;;;;;6.05;2.40;;;;;;;25.33;49.25;100635.13;5014857;28;20053;-77
2022/08/23 07:12:40;;;;;;;4.45;2.60;;;;;;;25.31;49.00;100629.88;5031015;28;20062;-79
2022/08/23 07:15:12;;;;;;;4.45;2.38;;;;;;;25.32;49.26;100630.72;5031287;28;20065;-81
2022/08/23 07:17:43;;;;;;;3.35;2.50;;;;;;;25.33;49.05;100627.00;4997006;28;20046;-79
2022/08/23 07:20:11;;;;;;;2.88;2.28;;;;;;;25.32;49.29;100634.28;5012283;28;20058;-79
2022/08/23 07:22:43;;;;;;;2.95;2.30;;;;;;;25.31;49.77;100637.16;4994643;28;20513;-79
2022/08/23 07:25:11;;;;;;;2.65;2.10;;;;;;;25.32;50.00;100637.00;4994884;28;20093;-79
2022/08/23 07:27:40;;;;;;;3.40;2.78;;;;;;;25.34;49.94;100634.13;4994603;28;20541;-79
2022/08/23 07:30:09;;;;;;;4.68;2.47;;;;;;;25.37;49.97;100639.19;4995803;28;20057;-84
2022/08/23 07:32:39;;;;;;;5.75;2.58;;;;;;;25.39;49.99;100645.25;4994965;28;20057;-78
2022/08/23 07:35:27;;;;;;;3.58;2.47;;;;;;;25.37;49.60;100655.44;5010947;28;20107;-79
2022/08/23 07:37:57;;;;;;;2.55;2.25;;;;;;;25.35;49.41;100661.03;5011454;28;20046;-78
2022/08/23 07:40:33;;;;;;;3.20;2.40;;;;;;;25.33;49.42;100662.25;4997094;28;20076;-79
2022/08/23 07:43:05;;;;;;;3.33;2.63;;;;;;;25.30;49.70;100658.00;5062645;28;20057;-78
2022/08/23 07:45:35;;;;;;;4.28;2.55;;;;;;;25.31;49.93;100666.97;5072317;28;20059;-78
2022/08/23 07:48:08;;;;;;;6.28;2.45;;;;;;;25.30;49.99;100668.84;5071602;28;20052;-79
2022/08/23 07:50:56;;;;;;;3.28;2.35;;;;;;;25.33;50.31;100667.66;5071978;28;20044;-78
2022/08/23 07:53:28;;;;;;;3.83;2.08;;;;;;;25.34;50.24;100674.75;5071809;28;20052;-78
2022/08/23 07:56:08;;;;;;;4.28;2.40;;;;;;;25.38;50.02;100667.97;5072013;28;20044;-78
2022/08/23 07:58:54;;;;;;;3.03;2.38;;;;;;;25.42;50.30;100682.84;5072091;28;20056;-78
2022/08/23 08:01:45;;;;;;;3.50;2.25;;;;;;;25.45;50.34;100682.50;5063877;28;20063;-78
2022/08/23 08:04:12;;;;;;;2.75;2.28;;;;;;;25.46;50.46;100681.47;5071312;28;20389;-78
2022/08/23 08:06:46;;;;;;;5.38;2.20;;;;;;;25.49;50.46;100691.97;5071876;28;20040;-79
2022/08/23 08:09:33;;;;;;;2.53;2.10;;;;;;;25.53;50.80;100695.19;5070919;28;20052;-79
2022/08/23 08:12:01;;;;;;;6.22;2.53;;;;;;;25.53;50.72;100687.91;5071472;28;20063;-78
2022/08/23 08:14:30;;;;;;;5.85;2.72;;;;;;;25.55;50.80;100690.41;5071207;28;20120;-78
2022/08/23 08:17:02;;;;;;;2.97;2.05;;;;;;;25.57;50.91;100691.94;5072692;28;20052;-79
2022/08/23 08:19:50;;;;;;;2.55;1.98;;;;;;;25.61;50.76;100693.28;5057289;28;20068;-79
2022/08/23 08:22:54;;;;;;;3.03;2.10;;;;;;;25.64;50.84;100698.34;4973595;28;20062;-79
2022/08/23 08:25:46;;;;;;;3.13;2.50;;;;;;;25.70;50.76;100704.09;4914704;29;20060;-78
2022/08/23 08:28:17;;;;;;;3.10;2.10;;;;;;;25.72;50.46;100702.88;4898678;29;20052;-79
2022/08/23 08:30:45;;;;;;;2.58;1.92;;;;;;;25.76;50.44;100706.91;4898357;29;20548;-79
2022/08/23 08:33:13;;;;;;;2.75;1.85;;;;;;;25.80;50.37;100704.72;4898116;29;20056;-79
2022/08/23 08:35:45;;;;;;;5.65;2.03;;;;;;;25.83;50.16;100707.09;4899327;29;20413;-79
2022/08/23 08:38:23;;;;;;;3.38;2.42;;;;;;;25.86;50.22;100707.59;4898907;29;20531;-79
2022/08/23 08:41:08;;;;;;;3.13;1.88;;;;;;;25.89;50.43;100711.81;4899121;29;20528;-78
2022/08/23 08:44:20;;;;;;;3.95;1.80;;;;;;;25.91;50.12;100709.75;4899955;29;20048;-78
2022/08/23 08:47:18;;;;;;;5.00;1.80;;;;;;;25.95;50.22;100712.97;4859164;29;20065;-79
2022/08/23 08:50:08;;;;;;;2.45;1.70;;;;;;;25.96;50.13;100718.19;4858654;29;20070;-79
2022/08/23 08:53:11;;;;;;;3.00;2.00;;;;;;;25.98;49.98;100718.88;4862078;29;20061;-79
2022/08/23 08:56:24;;;;;;;3.35;2.17;;;;;;;26.01;50.12;100709.53;4837229;29;20049;-79
2022/08/23 09:00:00;;;;;;;3.78;2.50;;;;;;;26.03;49.90;100712.91;4899173;29;20060;-79
2022/08/23 09:02:34;;;;;;;2.80;2.20;;;;;;;26.05;50.10;100713.56;4915474;29;20055;-79
2022/08/23 09:05:14;;;;;;;3.53;2.30;;;;;;;26.06;49.98;100713.41;4939358;29;20058;-79
2022/08/23 09:08:23;;;;;;;3.45;1.92;;;;;;;26.06;50.04;100707.97;4940351;29;20047;-79
2022/08/23 09:11:14;;;;;;;3.38;2.35;;;;;;;26.08;50.17;100715.94;4956269;28;20059;-78
2022/08/23 09:14:00;;;;;;;3.72;2.28;;;;;;;26.09;49.84;100707.63;4939593;29;20099;-78
2022/08/23 09:16:30;;;;;;;3.17;2.10;;;;;;;26.10;50.03;100719.31;4924222;29;20451;-79
2022/08/23 09:19:00;;;;;;;3.25;2.00;;;;;;;26.11;49.93;100716.41;4939274;29;20054;-79
2022/08/23 09:21:40;;;;;;;3.10;2.00;;;;;;;26.12;49.86;100711.84;4955636;29;20059;-78
2022/08/23 09:24:08;;;;;;;3.33;1.85;;;;;;;26.13;49.87;100714.38;4978828;28;20069;-78
2022/08/23 09:26:56;;;;;;;4.78;2.15;;;;;;;26.13;49.97;100719.81;5014672;28;20050;-78
2022/08/23 09:29:32;;;;;;;2.85;2.03;;;;;;;26.15;49.89;100719.63;5015041;28;20061;-78
2022/08/23 09:32:04;;;;;;;2.67;2.13;;;;;;;26.16;49.93;100713.16;5013519;28;20493;-79
2022/08/23 09:34:35;;;;;;;5.47;2.25;;;;;;;26.17;49.93;100716.72;5070859;28;20416;-79
2022/08/23 09:37:11;;;;;;;2.92;2.42;;;;;;;26.18;49.89;100715.72;5090495;28;20045;-79
2022/08/23 09:39:50;;;;;;;2.90;2.30;;;;;;;26.20;49.79;100719.06;5090878;28;20449;-79
2022/08/23 09:43:02;;;;;;;3.05;2.20;;;;;;;26.21;49.79;100715.34;5074444;28;20063;-78
2022/08/23 09:45:36;;;;;;;2.78;1.95;;;;;;;26.21;49.79;100721.63;5074007;28;20059;-79
2022/08/23 09:48:12;;;;;;;2.65;2.03;;;;;;;26.21;49.87;100723.47;5073448;28;20055;-78
2022/08/23 09:50:55;;;;;;;3.10;2.25;;;;;;;26.22;49.94;100726.03;5074165;28;20061;-78
2022/08/23 09:53:28;;;;;;;3.30;1.70;;;;;;;26.23;49.74;100724.16;5074199;28;20048;-78
2022/08/23 09:56:10;;;;;;;3.40;2.00;;;;;;;26.23;49.87;100732.28;5074292;28;20067;-79
2022/08/23 09:58:42;;;;;;;2.92;1.80;;;;;;;26.24;49.64;100725.84;5074114;28;20416;-78
2022/08/23 10:01:19;;;;;;;2.47;1.80;;;;;;;26.24;49.87;100734.81;5073925;28;20048;-78
2022/08/23 10:04:05;;;;;;;3.20;2.13;;;;;;;26.26;49.92;100731.94;5073421;28;20055;-79
2022/08/23 10:06:35;;;;;;;2.95;2.22;;;;;;;26.26;49.82;100729.22;5074141;28;20059;-78
2022/08/23 10:09:06;;;;;;;2.80;2.07;;;;;;;26.27;49.87;100730.91;5076675;28;20040;-79
2022/08/23 10:11:44;;;;;;;2.58;2.20;;;;;;;26.27;50.02;100733.63;5073912;28;20064;-79
2022/08/23 10:14:14;;;;;;;2.75;2.03;;;;;;;26.28;49.87;100738.84;5074494;28;20504;-79
2022/08/23 10:17:13;;;;;;;2.90;1.92;;;;;;;26.30;49.97;100733.28;5075037;28;20053;-79
2022/08/23 10:20:10;;;;;;;2.08;1.85;;;;;;;26.31;49.88;100737.66;5073370;28;20048;-80
2022/08/23 10:23:05;;;;;;;2.40;1.80;;;;;;;26.32;50.00;100736.63;5073345;28;20048;-80
2022/08/23 10:25:57;;;;;;;3.30;1.98;;;;;;;26.31;50.16;100738.50;5053220;28;20412;-79
2022/08/23 10:31:54;;;;;;;3.60;2.00;;;;;;;26.34;49.85;100745.47;5053462;28;20068;-79
2022/08/23 10:34:48;;;;;;;3.85;1.77;;;;;;;26.35;49.89;100747.13;5054539;28;20060;-79
2022/08/23 10:37:51;;;;;;;5.70;2.08;;;;;;;26.36;49.96;100740.69;5016206;28;20049;-79
2022/08/23 10:40:27;;;;;;;3.25;2.00;;;;;;;26.36;50.00;100740.69;5031567;28;20038;-79
2022/08/23 10:43:14;;;;;;;2.65;1.77;;;;;;;26.36;49.88;100735.25;5055470;28;20057;-79
2022/08/23 10:45:45;;;;;;;3.92;1.80;;;;;;;26.37;49.93;100740.50;5024124;28;20053;-79
2022/08/23 10:48:33;;;;;;;2.85;1.80;;;;;;;26.37;49.76;100731.50;5016573;28;20056;-79
2022/08/23 10:51:10;;;;;;;2.85;2.08;;;;;;;26.38;49.98;100731.34;5033266;28;20049;-79
2022/08/23 10:53:45;;;;;;;2.90;1.75;;;;;;;26.38;49.90;100735.94;5016620;28;20057;-79
2022/08/23 10:56:19;;;;;;;6.57;2.17;;;;;;;26.39;50.08;100724.03;5015488;28;20448;-79
2022/08/23 10:58:59;;;;;;;2.80;1.75;;;;;;;26.39;49.94;100733.03;5033448;28;20516;-79
2022/08/23 11:01:42;;;;;;;2.45;2.05;;;;;;;26.41;49.79;100724.69;5015129;28;20057;-79
2022/08/23 11:04:16;;;;;;;2.50;2.00;;;;;;;26.41;49.84;100727.41;5016379;28;20084;-79
2022/08/23 11:07:13;;;;;;;3.88;2.17;;;;;;;26.41;49.75;100719.25;5014922;28;20056;-80
2022/08/23 11:09:49;;;;;;;4.15;1.80;;;;;;;26.42;49.81;100725.56;5014455;28;20125;-80
2022/08/23 11:12:26;;;;;;;2.88;1.60;;;;;;;26.43;49.52;100729.94;5014683;28;20053;-79
2022/08/23 11:14:55;;;;;;;4.05;1.95;;;;;;;26.43;49.79;100727.25;5070888;28;20044;-79
2022/08/23 11:17:49;;;;;;;2.85;1.92;;;;;;;26.44;49.77;100718.91;5072858;28;20048;-79
2022/08/23 11:20:48;;;;;;;4.15;1.92;;;;;;;26.43;49.36;100714.50;5063756;28;20052;-79
2022/08/23 11:23:47;;;;;;;3.03;2.15;;;;;;;26.44;48.76;100724.31;5072799;28;20056;-80
2022/08/23 11:26:21;;;;;;;4.05;2.20;;;;;;;26.46;48.05;100714.19;5072718;28;20059;-79
2022/08/23 11:28:52;;;;;;;2.90;2.25;;;;;;;26.51;47.45;100713.63;5072338;28;20135;-81
2022/08/23 11:31:29;;;;;;;3.20;2.10;;;;;;;26.52;47.32;100729.72;5072720;28;20147;-82
2022/08/23 11:34:09;;;;;;;3.28;2.00;;;;;;;26.53;47.85;100717.00;5072216;28;20055;-82
2022/08/23 11:36:38;;;;;;;3.08;2.10;;;;;;;26.54;47.67;100721.41;5072257;28;20053;-80
2022/08/23 11:39:09;;;;;;;2.75;2.20;;;;;;;26.53;47.21;100720.53;5072916;28;20052;-79
2022/08/23 11:41:55;;;;;;;4.40;2.40;;;;;;;26.54;45.67;100729.56;5072878;28;20059;-79
2022/08/23 11:44:45;;;;;;;3.88;2.17;;;;;;;26.55;44.19;100718.50;5071998;28;20369;-79
2022/08/23 11:47:14;;;;;;;3.97;2.00;;;;;;;26.56;44.95;100722.06;5073343;28;20060;-79
2022/08/23 11:49:51;;;;;;;2.33;1.95;;;;;;;26.56;45.47;100719.34;5073143;28;20057;-79
2022/08/23 11:52:58;;;;;;;2.90;2.17;;;;;;;26.55;46.02;100729.38;5073747;28;20053;-80
2022/08/23 11:55:51;;;;;;;3.08;2.38;;;;;;;26.56;46.16;100724.78;5073623;28;20048;-78
2022/08/23 11:58:56;;;;;;;2.67;1.90;;;;;;;26.54;46.07;100719.53;5073079;28;20045;-79
2022/08/23 12:01:33;;;;;;;3.30;2.38;;;;;;;26.55;45.95;100721.22;5072968;28;20280;-78
2022/08/23 12:04:09;;;;;;;2.95;2.03;;;;;;;26.55;46.18;100723.94;5073479;28;20048;-81
2022/08/23 12:06:51;;;;;;;3.10;2.10;;;;;;;26.55;46.12;100718.50;5073162;28;20044;-83
2022/08/23 12:09:19;;;;;;;2.95;2.17;;;;;;;26.55;45.90;100718.50;5074453;28;20048;-82
2022/08/23 12:11:55;;;;;;;2.53;1.77;;;;;;;26.54;46.43;100714.13;5073147;28;20048;-81
2022/08/23 12:14:31;;;;;;;2.30;1.80;;;;;;;26.54;46.42;100719.53;5073270;28;20634;-79
2022/08/23 12:17:24;;;;;;;3.38;2.20;;;;;;;26.55;46.57;100710.38;5073597;28;20053;-79
2022/08/23 12:20:10;;;;;;;3.00;2.22;;;;;;;26.57;46.34;100721.03;5072822;28;20051;-79